sensor_id;sensor_type;location;lat;lon;timestamp;pressure;altitude;pressure_sealevel;temperature;humidity
42297;BME280;28985;47.456;19.016;2022-08-25T00:01:49;100384.97;;;18.23;100.00
42297;BME280;28985;47.456;19.016;2022-08-25T00:04:17;100393.50;;;18.20;100.00
42297;BME280;28985;47.456;19.016;2022-08-25T00:06:47;100389.97;;;18.19;100.00
42297;BME280;28985;47.456;19.016;2022-08-25T00:09:16;100389.09;;;18.19;100.00
42297;BME280;28985;47.456;19.016;2022-08-25T00:11:43;100394.09;;;18.15;100.00
42297;BME280;28985;47.456;19.016;2022-08-25T00:14:15;100392.56;;;18.13;100.00
42297;BME280;28985;47.456;19.016;2022-08-25T00:16:42;100393.25;;;18.15;100.00
42297;BME280;28985;47.456;19.016;2022-08-25T00:19:14;100387.81;;;18.15;100.00
42297;BME280;28985;47.456;19.016;2022-08-25T00:21:43;100391.19;;;18.17;100.00
42297;BME280;28985;47.456;19.016;2022-08-25T00:24:11;100389.50;;;18.16;100.00
42297;BME280;28985;47.456;19.016;2022-08-25T00:26:41;100384.69;;;18.18;100.00
42297;BME280;28985;47.456;19.016;2022-08-25T00:29:09;100385.84;;;18.23;100.00
42297;BME280;28985;47.456;19.016;2022-08-25T00:31:36;100387.53;;;18.24;100.00
42297;BME280;28985;47.456;19.016;2022-08-25T00:34:10;100380.38;;;18.23;100.00
42297;BME280;28985;47.456;19.016;2022-08-25T00:36:37;100385.34;;;18.20;100.00
42297;BME280;28985;47.456;19.016;2022-08-25T00:39:05;100385.16;;;18.21;100.00
42297;BME280;28985;47.456;19.016;2022-08-25T00:41:33;100384.69;;;18.18;100.00
42297;BME280;28985;47.456;19.016;2022-08-25T00:44:03;100382.81;;;18.18;100.00
42297;BME280;28985;47.456;19.016;2022-08-25T00:46:37;100388.06;;;18.20;100.00
42297;BME280;28985;47.456;19.016;2022-08-25T00:49:16;100389.97;;;18.19;100.00
42297;BME280;28985;47.456;19.016;2022-08-25T00:52:10;100380.84;;;18.12;100.00
42297;BME280;28985;47.456;19.016;2022-08-25T00:54:46;100381.47;;;17.99;100.00
42297;BME280;28985;47.456;19.016;2022-08-25T00:57:17;100379.84;;;17.90;100.00
42297;BME280;28985;47.456;19.016;2022-08-25T01:00:00;100374.78;;;17.87;100.00
42297;BME280;28985;47.456;19.016;2022-08-25T01:02:27;100379.47;;;17.93;100.00
42297;BME280;28985;47.456;19.016;2022-08-25T01:04:53;100372.81;;;17.95;100.00
42297;BME280;28985;47.456;19.016;2022-08-25T01:07:20;100373.47;;;17.97;100.00
42297;BME280;28985;47.456;19.016;2022-08-25T01:09:50;100375.16;;;17.98;100.00
42297;BME280;28985;47.456;19.016;2022-08-25T01:12:17;100381.63;;;17.97;100.00
42297;BME280;28985;47.456;19.016;2022-08-25T01:14:45;100378.25;;;17.95;100.00
42297;BME280;28985;47.456;19.016;2022-08-25T01:17:13;100371.13;;;17.94;100.00
42297;BME280;28985;47.456;19.016;2022-08-25T01:19:40;100375.44;;;17.89;100.00
42297;BME280;28985;47.456;19.016;2022-08-25T01:22:06;100374.59;;;17.88;100.00
42297;BME280;28985;47.456;19.016;2022-08-25T01:24:44;100369.81;;;17.90;100.00
42297;BME280;28985;47.456;19.016;2022-08-25T01:27:12;100379.38;;;17.86;100.00
42297;BME280;28985;47.456;19.016;2022-08-25T01:29:39;100370.91;;;17.81;100.00
42297;BME280;28985;47.456;19.016;2022-08-25T01:32:09;100373.53;;;17.74;100.00
42297;BME280;28985;47.456;19.016;2022-08-25T01:34:39;100381.25;;;17.70;100.00
42297;BME280;28985;47.456;19.016;2022-08-25T01:37:09;100370.22;;;17.64;100.00
42297;BME280;28985;47.456;19.016;2022-08-25T01:39:39;100372.41;;;17.68;100.00
42297;BME280;28985;47.456;19.016;2022-08-25T01:44:33;100366.94;;;17.68;100.00
42297;BME280;28985;47.456;19.016;2022-08-25T01:47:02;100373.44;;;17.67;100.00
42297;BME280;28985;47.456;19.016;2022-08-25T01:49:29;100378.22;;;17.65;100.00
42297;BME280;28985;47.456;19.016;2022-08-25T01:52:09;100370.78;;;17.59;100.00
42297;BME280;28985;47.456;19.016;2022-08-25T01:54:36;100363.28;;;17.61;100.00
42297;BME280;28985;47.456;19.016;2022-08-25T01:57:03;100369.19;;;17.65;100.00
42297;BME280;28985;47.456;19.016;2022-08-25T01:59:30;100369.88;;;17.67;100.00
42297;BME280;28985;47.456;19.016;2022-08-25T02:01:57;100377.00;;;17.68;100.00
42297;BME280;28985;47.456;19.016;2022-08-25T02:04:26;100371.09;;;17.64;100.00
42297;BME280;28985;47.456;19.016;2022-08-25T02:06:54;100367.69;;;17.62;100.00
42297;BME280;28985;47.456;19.016;2022-08-25T02:09:21;100370.50;;;17.54;100.00
42297;BME280;28985;47.456;19.016;2022-08-25T02:11:48;100367.09;;;17.52;100.00
42297;BME280;28985;47.456;19.016;2022-08-25T02:14:15;100361.00;;;17.50;100.00
42297;BME280;28985;47.456;19.016;2022-08-25T02:16:46;100366.44;;;17.50;100.00
42297;BME280;28985;47.456;19.016;2022-08-25T02:19:15;100368.13;;;17.51;100.00
42297;BME280;28985;47.456;19.016;2022-08-25T02:21:42;100365.97;;;17.46;100.00
42297;BME280;28985;47.456;19.016;2022-08-25T02:24:10;100364.63;;;17.42;100.00
42297;BME280;28985;47.456;19.016;2022-08-25T02:26:37;100360.41;;;17.39;100.00
42297;BME280;28985;47.456;19.016;2022-08-25T02:29:05;100359.28;;;17.34;100.00
42297;BME280;28985;47.456;19.016;2022-08-25T02:31:33;100363.06;;;17.24;100.00
42297;BME280;28985;47.456;19.016;2022-08-25T02:34:00;100364.75;;;17.25;100.00
42297;BME280;28985;47.456;19.016;2022-08-25T02:36:28;100359.22;;;17.18;100.00
42297;BME280;28985;47.456;19.016;2022-08-25T02:38:55;100347.66;;;17.16;100.00
42297;BME280;28985;47.456;19.016;2022-08-25T02:41:24;100348.88;;;17.14;100.00
42297;BME280;28985;47.456;19.016;2022-08-25T02:43:57;100353.00;;;17.10;100.00
42297;BME280;28985;47.456;19.016;2022-08-25T02:46:24;100355.72;;;17.10;100.00
42297;BME280;28985;47.456;19.016;2022-08-25T02:48:51;100362.19;;;17.09;100.00
42297;BME280;28985;47.456;19.016;2022-08-25T02:51:20;100357.75;;;17.08;100.00
42297;BME280;28985;47.456;19.016;2022-08-25T02:53:48;100356.06;;;17.07;100.00
42297;BME280;28985;47.456;19.016;2022-08-25T02:56:16;100350.81;;;17.05;100.00
42297;BME280;28985;47.456;19.016;2022-08-25T02:58:44;100353.94;;;16.94;100.00
42297;BME280;28985;47.456;19.016;2022-08-25T03:01:12;100356.13;;;16.90;100.00
42297;BME280;28985;47.456;19.016;2022-08-25T03:03:40;100348.97;;;16.97;100.00
42297;BME280;28985;47.456;19.016;2022-08-25T03:06:12;100351.69;;;16.97;100.00
42297;BME280;28985;47.456;19.016;2022-08-25T03:08:39;100357.47;;;16.94;100.00
42297;BME280;28985;47.456;19.016;2022-08-25T03:11:07;100346.25;;;16.97;100.00
42297;BME280;28985;47.456;19.016;2022-08-25T03:13:34;100344.38;;;16.98;100.00
42297;BME280;28985;47.456;19.016;2022-08-25T03:16:03;100345.56;;;16.95;100.00
42297;BME280;28985;47.456;19.016;2022-08-25T03:18:30;100347.06;;;16.98;100.00
42297;BME280;28985;47.456;19.016;2022-08-25T03:20:57;100348.59;;;17.00;100.00
42297;BME280;28985;47.456;19.016;2022-08-25T03:23:24;100334.16;;;17.00;100.00
42297;BME280;28985;47.456;19.016;2022-08-25T03:25:55;100339.09;;;17.04;100.00
42297;BME280;28985;47.456;19.016;2022-08-25T03:28:40;100347.91;;;17.07;100.00
42297;BME280;28985;47.456;19.016;2022-08-25T03:31:07;100343.66;;;17.04;100.00
42297;BME280;28985;47.456;19.016;2022-08-25T03:33:34;100348.78;;;16.99;100.00
42297;BME280;28985;47.456;19.016;2022-08-25T03:36:02;100349.81;;;16.98;100.00
42297;BME280;28985;47.456;19.016;2022-08-25T03:38:29;100358.50;;;16.93;100.00
42297;BME280;28985;47.456;19.016;2022-08-25T03:40:56;100356.66;;;16.94;100.00
42297;BME280;28985;47.456;19.016;2022-08-25T03:43:22;100356.34;;;16.88;100.00
42297;BME280;28985;47.456;19.016;2022-08-25T03:45:49;100351.25;;;16.85;100.00
42297;BME280;28985;47.456;19.016;2022-08-25T03:48:16;100358.03;;;16.89;100.00
42297;BME280;28985;47.456;19.016;2022-08-25T03:50:50;100348.84;;;16.90;100.00
42297;BME280;28985;47.456;19.016;2022-08-25T03:53:18;100351.56;;;16.90;100.00
42297;BME280;28985;47.456;19.016;2022-08-25T03:55:45;100351.06;;;16.87;100.00
42297;BME280;28985;47.456;19.016;2022-08-25T03:58:12;100351.06;;;16.87;100.00
42297;BME280;28985;47.456;19.016;2022-08-25T04:00:38;100357.53;;;16.86;100.00
42297;BME280;28985;47.456;19.016;2022-08-25T04:03:06;100358.75;;;16.83;100.00
42297;BME280;28985;47.456;19.016;2022-08-25T04:05:33;100356.19;;;16.82;100.00
42297;BME280;28985;47.456;19.016;2022-08-25T04:08:00;100357.72;;;16.84;100.00
42297;BME280;28985;47.456;19.016;2022-08-25T04:10:28;100360.97;;;16.80;100.00
42297;BME280;28985;47.456;19.016;2022-08-25T04:12:56;100360.28;;;16.77;100.00
42297;BME280;28985;47.456;19.016;2022-08-25T04:15:22;100366.09;;;16.74;100.00
42297;BME280;28985;47.456;19.016;2022-08-25T04:17:55;100367.44;;;16.78;100.00
42297;BME280;28985;47.456;19.016;2022-08-25T04:20:22;100364.91;;;16.77;100.00
42297;BME280;28985;47.456;19.016;2022-08-25T04:22:48;100369.13;;;16.80;100.00
42297;BME280;28985;47.456;19.016;2022-08-25T04:25:15;100365.06;;;16.75;100.00
42297;BME280;28985;47.456;19.016;2022-08-25T04:27:42;100364.59;;;16.72;100.00
42297;BME280;28985;47.456;19.016;2022-08-25T04:30:09;100366.25;;;16.81;100.00
42297;BME280;28985;47.456;19.016;2022-08-25T04:32:36;100361.09;;;16.86;100.00
42297;BME280;28985;47.456;19.016;2022-08-25T04:35:03;100366.84;;;16.91;100.00
42297;BME280;28985;47.456;19.016;2022-08-25T04:37:30;100360.69;;;16.98;100.00
42297;BME280;28985;47.456;19.016;2022-08-25T04:39:58;100359.97;;;17.04;100.00
42297;BME280;28985;47.456;19.016;2022-08-25T04:42:25;100355.72;;;17.01;100.00
42297;BME280;28985;47.456;19.016;2022-08-25T04:44:52;100363.88;;;17.01;100.00
42297;BME280;28985;47.456;19.016;2022-08-25T04:47:20;100357.75;;;17.08;100.00
42297;BME280;28985;47.456;19.016;2022-08-25T04:49:47;100353.31;;;17.15;100.00
42297;BME280;28985;47.456;19.016;2022-08-25T04:52:14;100354.44;;;17.21;100.00
42297;BME280;28985;47.456;19.016;2022-08-25T04:54:41;100352.66;;;17.28;100.00
42297;BME280;28985;47.456;19.016;2022-08-25T04:57:07;100353.81;;;17.34;100.00
42297;BME280;28985;47.456;19.016;2022-08-25T04:59:34;100361.34;;;17.31;100.00
42297;BME280;28985;47.456;19.016;2022-08-25T05:02:01;100359.41;;;17.40;100.00
42297;BME280;28985;47.456;19.016;2022-08-25T05:04:34;100350.19;;;17.41;100.00
42297;BME280;28985;47.456;19.016;2022-08-25T05:07:01;100357.81;;;17.46;100.00
42297;BME280;28985;47.456;19.016;2022-08-25T05:09:28;100360.81;;;17.51;100.00
42297;BME280;28985;47.456;19.016;2022-08-25T05:11:59;100362.63;;;17.59;100.00
42297;BME280;28985;47.456;19.016;2022-08-25T05:14:27;100356.25;;;17.67;100.00
42297;BME280;28985;47.456;19.016;2022-08-25T05:16:54;100358.03;;;17.75;100.00
42297;BME280;28985;47.456;19.016;2022-08-25T05:19:22;100348.13;;;17.82;100.00
42297;BME280;28985;47.456;19.016;2022-08-25T05:21:51;100358.25;;;17.88;100.00
42297;BME280;28985;47.456;19.016;2022-08-25T05:24:19;100357.31;;;17.96;100.00
42297;BME280;28985;47.456;19.016;2022-08-25T05:26:46;100354.50;;;18.04;100.00
42297;BME280;28985;47.456;19.016;2022-08-25T05:29:12;100355.47;;;18.11;100.00
42297;BME280;28985;47.456;19.016;2022-08-25T05:31:39;100353.69;;;18.19;100.00
42297;BME280;28985;47.456;19.016;2022-08-25T05:34:15;100358.00;;;18.28;100.00
42297;BME280;28985;47.456;19.016;2022-08-25T05:36:43;100358.09;;;18.35;100.00
42297;BME280;28985;47.456;19.016;2022-08-25T05:39:10;100357.13;;;18.43;100.00
42297;BME280;28985;47.456;19.016;2022-08-25T05:41:37;100352.63;;;18.50;100.00
42297;BME280;28985;47.456;19.016;2022-08-25T05:44:03;100346.41;;;18.56;100.00
42297;BME280;28985;47.456;19.016;2022-08-25T05:46:30;100358.88;;;18.65;100.00
42297;BME280;28985;47.456;19.016;2022-08-25T05:48:57;100348.72;;;18.74;100.00
42297;BME280;28985;47.456;19.016;2022-08-25T05:51:24;100351.13;;;18.84;100.00
42297;BME280;28985;47.456;19.016;2022-08-25T05:53:52;100350.84;;;18.94;100.00
42297;BME280;28985;47.456;19.016;2022-08-25T05:56:18;100355.28;;;19.02;100.00
42297;BME280;28985;47.456;19.016;2022-08-25T05:58:46;100343.25;;;19.11;100.00
42297;BME280;28985;47.456;19.016;2022-08-25T06:01:24;100343.78;;;19.22;100.00
42297;BME280;28985;47.456;19.016;2022-08-25T06:04:12;100342.59;;;19.31;100.00
42297;BME280;28985;47.456;19.016;2022-08-25T06:06:39;100336.59;;;19.42;100.00
42297;BME280;28985;47.456;19.016;2022-08-25T06:09:06;100345.50;;;19.51;100.00
42297;BME280;28985;47.456;19.016;2022-08-25T06:11:36;100338.66;;;19.62;100.00
42297;BME280;28985;47.456;19.016;2022-08-25T06:14:03;100352.78;;;19.72;100.00
42297;BME280;28985;47.456;19.016;2022-08-25T06:16:30;100345.28;;;19.81;100.00
42297;BME280;28985;47.456;19.016;2022-08-25T06:18:57;100340.31;;;19.92;100.00
42297;BME280;28985;47.456;19.016;2022-08-25T06:21:23;100350.09;;;20.08;100.00
42297;BME280;28985;47.456;19.016;2022-08-25T06:23:50;100345.75;;;20.20;100.00
42297;BME280;28985;47.456;19.016;2022-08-25T06:26:18;100345.63;;;20.35;100.00
42297;BME280;28985;47.456;19.016;2022-08-25T06:28:47;100345.91;;;20.47;100.00
42297;BME280;28985;47.456;19.016;2022-08-25T06:31:14;100344.47;;;20.58;100.00
42297;BME280;28985;47.456;19.016;2022-08-25T06:33:41;100355.66;;;20.70;100.00
42297;BME280;28985;47.456;19.016;2022-08-25T06:36:07;100356.94;;;20.81;100.00
42297;BME280;28985;47.456;19.016;2022-08-25T06:38:34;100361.22;;;20.97;100.00
42297;BME280;28985;47.456;19.016;2022-08-25T06:41:03;100370.53;;;21.10;100.00
42297;BME280;28985;47.456;19.016;2022-08-25T06:43:30;100357.25;;;21.20;100.00
42297;BME280;28985;47.456;19.016;2022-08-25T06:46:13;100362.97;;;21.39;100.00
42297;BME280;28985;47.456;19.016;2022-08-25T06:48:40;100365.50;;;21.47;100.00
42297;BME280;28985;47.456;19.016;2022-08-25T06:51:08;100363.00;;;21.52;100.00
42297;BME280;28985;47.456;19.016;2022-08-25T06:53:39;100364.25;;;21.63;100.00
42297;BME280;28985;47.456;19.016;2022-08-25T06:56:06;100362.16;;;21.72;100.00
42297;BME280;28985;47.456;19.016;2022-08-25T06:58:32;100369.31;;;21.80;100.00
42297;BME280;28985;47.456;19.016;2022-08-25T07:01:20;100368.69;;;21.91;100.00
42297;BME280;28985;47.456;19.016;2022-08-25T07:03:53;100359.41;;;21.99;100.00
42297;BME280;28985;47.456;19.016;2022-08-25T07:06:23;100364.84;;;22.06;100.00
42297;BME280;28985;47.456;19.016;2022-08-25T07:08:50;100368.84;;;22.17;100.00
42297;BME280;28985;47.456;19.016;2022-08-25T07:11:17;100370.06;;;22.34;99.67
42297;BME280;28985;47.456;19.016;2022-08-25T07:13:44;100367.47;;;22.39;97.00
42297;BME280;28985;47.456;19.016;2022-08-25T07:16:11;100364.75;;;22.53;97.25
42297;BME280;28985;47.456;19.016;2022-08-25T07:18:41;100361.13;;;22.59;94.78
42297;BME280;28985;47.456;19.016;2022-08-25T07:21:10;100363.81;;;22.66;91.65
42297;BME280;28985;47.456;19.016;2022-08-25T07:23:38;100369.44;;;22.85;93.79
42297;BME280;28985;47.456;19.016;2022-08-25T07:26:19;100365.81;;;22.91;90.66
42297;BME280;28985;47.456;19.016;2022-08-25T07:29:06;100363.41;;;23.01;90.87
42297;BME280;28985;47.456;19.016;2022-08-25T07:31:33;100363.16;;;23.10;88.81
42297;BME280;28985;47.456;19.016;2022-08-25T07:34:00;100364.34;;;23.20;88.46
42297;BME280;28985;47.456;19.016;2022-08-25T07:36:45;100368.72;;;23.35;87.60
42297;BME280;28985;47.456;19.016;2022-08-25T07:39:12;100367.38;;;23.44;87.40
42297;BME280;28985;47.456;19.016;2022-08-25T07:41:40;100360.97;;;23.51;87.30
42297;BME280;28985;47.456;19.016;2022-08-25T07:44:08;100363.47;;;23.59;87.66
42297;BME280;28985;47.456;19.016;2022-08-25T07:46:35;100355.53;;;23.69;84.98
42297;BME280;28985;47.456;19.016;2022-08-25T07:49:02;100355.66;;;23.81;84.36
42297;BME280;28985;47.456;19.016;2022-08-25T07:51:41;100359.50;;;23.99;85.00
42297;BME280;28985;47.456;19.016;2022-08-25T07:54:28;100347.06;;;24.15;82.21
42297;BME280;28985;47.456;19.016;2022-08-25T07:57:00;100351.00;;;24.26;81.06
42297;BME280;28985;47.456;19.016;2022-08-25T07:59:26;100355.09;;;24.35;81.56
42297;BME280;28985;47.456;19.016;2022-08-25T08:01:53;100357.44;;;24.50;79.75
42297;BME280;28985;47.456;19.016;2022-08-25T08:04:20;100352.25;;;24.61;80.15
42297;BME280;28985;47.456;19.016;2022-08-25T08:06:47;100354.81;;;24.74;77.54
42297;BME280;28985;47.456;19.016;2022-08-25T08:09:14;100351.78;;;24.83;75.68
42297;BME280;28985;47.456;19.016;2022-08-25T08:11:41;100355.72;;;24.87;72.45
42297;BME280;28985;47.456;19.016;2022-08-25T08:14:20;100355.28;;;25.02;75.36
42297;BME280;28985;47.456;19.016;2022-08-25T08:16:46;100354.63;;;25.06;71.24
42297;BME280;28985;47.456;19.016;2022-08-25T08:19:14;100350.78;;;25.19;72.00
42297;BME280;28985;47.456;19.016;2022-08-25T08:21:41;100366.88;;;25.34;71.61
42297;BME280;28985;47.456;19.016;2022-08-25T08:24:08;100365.19;;;25.33;63.60
42297;BME280;28985;47.456;19.016;2022-08-25T08:26:54;100363.88;;;25.36;63.61
42297;BME280;28985;47.456;19.016;2022-08-25T08:29:24;100361.41;;;25.46;67.45
42297;BME280;28985;47.456;19.016;2022-08-25T08:31:52;100354.88;;;25.59;70.41
42297;BME280;28985;47.456;19.016;2022-08-25T08:34:19;100362.03;;;25.72;70.10
42297;BME280;28985;47.456;19.016;2022-08-25T08:36:51;100352.22;;;25.89;66.80
42297;BME280;28985;47.456;19.016;2022-08-25T08:39:17;100351.47;;;26.05;66.24
42297;BME280;28985;47.456;19.016;2022-08-25T08:42:11;100354.47;;;26.16;64.92
42297;BME280;28985;47.456;19.016;2022-08-25T08:47:27;100350.00;;;26.38;61.77
42297;BME280;28985;47.456;19.016;2022-08-25T08:55:10;100343.22;;;26.58;59.22
42297;BME280;28985;47.456;19.016;2022-08-25T08:57:43;100340.78;;;26.62;57.69
42297;BME280;28985;47.456;19.016;2022-08-25T09:00:10;100350.63;;;26.70;58.83
42297;BME280;28985;47.456;19.016;2022-08-25T09:02:48;100347.22;;;26.79;60.71
42297;BME280;28985;47.456;19.016;2022-08-25T09:05:19;100346.44;;;26.96;61.55
42297;BME280;28985;47.456;19.016;2022-08-25T09:08:12;100344.88;;;27.17;60.15
42297;BME280;28985;47.456;19.016;2022-08-25T09:19:28;100332.09;;;27.80;56.80
42297;BME280;28985;47.456;19.016;2022-08-25T09:25:02;100322.53;;;28.10;55.89
42297;BME280;28985;47.456;19.016;2022-08-25T09:27:44;100316.53;;;28.18;58.67
42297;BME280;28985;47.456;19.016;2022-08-25T09:30:15;100312.91;;;28.35;56.01
42297;BME280;28985;47.456;19.016;2022-08-25T09:32:47;100315.78;;;28.45;56.17
42297;BME280;28985;47.456;19.016;2022-08-25T09:35:21;100303.50;;;28.58;56.24
42297;BME280;28985;47.456;19.016;2022-08-25T09:37:59;100306.63;;;28.67;55.27
42297;BME280;28985;47.456;19.016;2022-08-25T09:40:28;100303.91;;;28.72;51.14
42297;BME280;28985;47.456;19.016;2022-08-25T09:42:58;100303.00;;;28.66;47.73
42297;BME280;28985;47.456;19.016;2022-08-25T09:45:43;100294.19;;;28.70;50.94
42297;BME280;28985;47.456;19.016;2022-08-25T09:50:49;100286.28;;;28.84;49.74
42297;BME280;28985;47.456;19.016;2022-08-25T09:53:17;100290.81;;;28.90;51.54
42297;BME280;28985;47.456;19.016;2022-08-25T09:55:56;100278.09;;;28.94;48.48
42297;BME280;28985;47.456;19.016;2022-08-25T09:58:26;100282.09;;;29.08;51.04
42297;BME280;28985;47.456;19.016;2022-08-25T10:03:31;100270.69;;;29.43;51.80
42297;BME280;28985;47.456;19.016;2022-08-25T10:06:07;100273.06;;;29.56;51.47
42297;BME280;28985;47.456;19.016;2022-08-25T10:08:52;100268.41;;;29.72;50.77
42297;BME280;28985;47.456;19.016;2022-08-25T10:16:39;100263.28;;;30.07;50.19
42297;BME280;28985;47.456;19.016;2022-08-25T10:19:25;100260.63;;;30.23;50.21
42297;BME280;28985;47.456;19.016;2022-08-25T10:22:09;100255.03;;;30.12;43.01
42297;BME280;28985;47.456;19.016;2022-08-25T10:24:38;100261.13;;;30.09;44.09
42297;BME280;28985;47.456;19.016;2022-08-25T10:27:26;100263.91;;;30.09;43.13
42297;BME280;28985;47.456;19.016;2022-08-25T10:35:04;100249.03;;;30.62;46.48
42297;BME280;28985;47.456;19.016;2022-08-25T10:40:48;100243.25;;;30.95;47.57
42297;BME280;28985;47.456;19.016;2022-08-25T10:43:31;100239.91;;;31.14;46.73
42297;BME280;28985;47.456;19.016;2022-08-25T10:49:03;100242.66;;;31.50;45.04
42297;BME280;28985;47.456;19.016;2022-08-25T10:54:40;100226.44;;;31.73;40.44
42297;BME280;28985;47.456;19.016;2022-08-25T10:57:44;100225.84;;;31.86;43.80
42297;BME280;28985;47.456;19.016;2022-08-25T11:00:10;100228.88;;;32.00;41.62
42297;BME280;28985;47.456;19.016;2022-08-25T11:05:24;100212.22;;;32.35;43.04
42297;BME280;28985;47.456;19.016;2022-08-25T11:08:34;100214.41;;;32.49;40.79
42297;BME280;28985;47.456;19.016;2022-08-25T11:11:08;100211.00;;;32.57;39.26
42297;BME280;28985;47.456;19.016;2022-08-25T11:14:00;100210.81;;;32.38;36.47
42297;BME280;28985;47.456;19.016;2022-08-25T11:16:50;100206.44;;;32.26;37.46
42297;BME280;28985;47.456;19.016;2022-08-25T11:19:21;100204.16;;;32.39;37.22
42297;BME280;28985;47.456;19.016;2022-08-25T11:22:11;100203.78;;;32.51;38.21
42297;BME280;28985;47.456;19.016;2022-08-25T11:27:53;100196.75;;;32.99;37.70
42297;BME280;28985;47.456;19.016;2022-08-25T11:30:20;100194.50;;;33.01;36.62
42297;BME280;28985;47.456;19.016;2022-08-25T11:32:53;100188.84;;;33.06;36.00
42297;BME280;28985;47.456;19.016;2022-08-25T11:35:46;100181.66;;;33.00;37.08
42297;BME280;28985;47.456;19.016;2022-08-25T11:41:07;100176.03;;;33.34;40.29
42297;BME280;28985;47.456;19.016;2022-08-25T11:51:54;100160.91;;;34.04;37.91
42297;BME280;28985;47.456;19.016;2022-08-25T11:54:44;100161.03;;;34.18;37.49
42297;BME280;28985;47.456;19.016;2022-08-25T11:57:22;100157.69;;;34.35;38.19
42297;BME280;28985;47.456;19.016;2022-08-25T12:05:09;100153.53;;;34.85;37.56
42297;BME280;28985;47.456;19.016;2022-08-25T12:10:23;100154.88;;;34.87;32.52
42297;BME280;28985;47.456;19.016;2022-08-25T12:13:00;100149.72;;;34.94;32.95
42297;BME280;28985;47.456;19.016;2022-08-25T12:29:03;100135.25;;;35.63;31.50
42297;BME280;28985;47.456;19.016;2022-08-25T12:37:12;100134.41;;;35.62;29.41
42297;BME280;28985;47.456;19.016;2022-08-25T12:42:28;100131.72;;;35.71;31.85
42297;BME280;28985;47.456;19.016;2022-08-25T12:47:35;100121.78;;;36.16;29.40
42297;BME280;28985;47.456;19.016;2022-08-25T12:50:41;100125.13;;;36.49;30.58
42297;BME280;28985;47.456;19.016;2022-08-25T12:53:14;100119.97;;;36.97;30.47
42297;BME280;28985;47.456;19.016;2022-08-25T12:55:47;100118.31;;;37.37;29.65
42297;BME280;28985;47.456;19.016;2022-08-25T12:58:15;100117.25;;;37.73;30.80
42297;BME280;28985;47.456;19.016;2022-08-25T13:12:25;100107.97;;;38.61;29.48
42297;BME280;28985;47.456;19.016;2022-08-25T13:14:56;100103.91;;;38.88;29.26
42297;BME280;28985;47.456;19.016;2022-08-25T13:17:27;100104.56;;;39.33;26.55
42297;BME280;28985;47.456;19.016;2022-08-25T13:20:21;100109.84;;;39.65;27.81
42297;BME280;28985;47.456;19.016;2022-08-25T13:22:51;100101.06;;;39.87;27.79
42297;BME280;28985;47.456;19.016;2022-08-25T13:25:25;100097.31;;;40.17;27.72
42297;BME280;28985;47.456;19.016;2022-08-25T13:28:03;100095.13;;;40.57;26.28
42297;BME280;28985;47.456;19.016;2022-08-25T13:30:36;100093.84;;;40.54;25.50
42297;BME280;28985;47.456;19.016;2022-08-25T13:33:19;100091.84;;;40.33;23.35
42297;BME280;28985;47.456;19.016;2022-08-25T13:35:53;100096.31;;;39.58;24.85
42297;BME280;28985;47.456;19.016;2022-08-25T13:38:39;100089.59;;;39.41;28.37
42297;BME280;28985;47.456;19.016;2022-08-25T13:41:16;100093.84;;;39.78;25.72
42297;BME280;28985;47.456;19.016;2022-08-25T13:43:44;100077.59;;;40.17;27.11
42297;BME280;28985;47.456;19.016;2022-08-25T13:46:11;100078.22;;;40.57;23.47
42297;BME280;28985;47.456;19.016;2022-08-25T13:48:41;100084.06;;;40.51;26.59
42297;BME280;28985;47.456;19.016;2022-08-25T13:51:27;100075.78;;;39.79;27.65
42297;BME280;28985;47.456;19.016;2022-08-25T13:54:03;100085.09;;;38.80;28.31
42297;BME280;28985;47.456;19.016;2022-08-25T13:56:36;100078.97;;;38.78;27.93
42297;BME280;28985;47.456;19.016;2022-08-25T13:59:23;100082.97;;;39.16;27.48
42297;BME280;28985;47.456;19.016;2022-08-25T14:01:53;100074.28;;;39.60;26.84
42297;BME280;28985;47.456;19.016;2022-08-25T14:04:25;100069.94;;;39.84;26.55
42297;BME280;28985;47.456;19.016;2022-08-25T14:10:04;100069.28;;;40.33;26.66
42297;BME280;28985;47.456;19.016;2022-08-25T14:12:44;100070.28;;;40.04;26.94
42297;BME280;28985;47.456;19.016;2022-08-25T14:17:58;100063.41;;;39.50;28.37
42297;BME280;28985;47.456;19.016;2022-08-25T14:20:27;100067.28;;;39.36;28.86
42297;BME280;28985;47.456;19.016;2022-08-25T14:22:59;100058.66;;;38.63;29.78
42297;BME280;28985;47.456;19.016;2022-08-25T14:25:28;100066.41;;;38.75;28.58
42297;BME280;28985;47.456;19.016;2022-08-25T14:28:02;100063.09;;;38.73;28.31
42297;BME280;28985;47.456;19.016;2022-08-25T14:30:35;100064.13;;;39.07;29.00
42297;BME280;28985;47.456;19.016;2022-08-25T14:33:05;100055.22;;;38.97;27.81
42297;BME280;28985;47.456;19.016;2022-08-25T14:35:32;100056.38;;;39.04;27.19
42297;BME280;28985;47.456;19.016;2022-08-25T14:38:08;100057.38;;;38.91;28.06
42297;BME280;28985;47.456;19.016;2022-08-25T14:40:36;100047.19;;;39.46;26.73
42297;BME280;28985;47.456;19.016;2022-08-25T14:43:05;100040.09;;;40.04;25.58
42297;BME280;28985;47.456;19.016;2022-08-25T14:45:38;100046.13;;;40.15;24.25
42297;BME280;28985;47.456;19.016;2022-08-25T14:48:13;100045.03;;;40.07;24.52
42297;BME280;28985;47.456;19.016;2022-08-25T14:50:43;100046.75;;;40.33;24.19